sensor_id;sensor_type;location;lat;lon;timestamp;temperature;humidity
9385;DHT22;4732;49.340;10.886;2024-02-04T04:01:49;6.90;99.90
9385;DHT22;4732;49.340;10.886;2024-02-04T04:04:15;6.90;99.90
9385;DHT22;4732;49.340;10.886;2024-02-04T04:06:42;6.90;99.90
9385;DHT22;4732;49.340;10.886;2024-02-04T04:09:07;6.90;99.90
9385;DHT22;4732;49.340;10.886;2024-02-04T04:11:33;6.90;99.90
9385;DHT22;4732;49.340;10.886;2024-02-04T04:13:58;6.80;99.90
9385;DHT22;4732;49.340;10.886;2024-02-04T04:16:24;6.80;99.90
9385;DHT22;4732;49.340;10.886;2024-02-04T04:18:49;6.80;99.90
9385;DHT22;4732;49.340;10.886;2024-02-04T04:21:15;6.80;99.90
9385;DHT22;4732;49.340;10.886;2024-02-04T04:23:41;6.70;99.90
9385;DHT22;4732;49.340;10.886;2024-02-04T04:26:06;6.80;99.90
9385;DHT22;4732;49.340;10.886;2024-02-04T04:28:32;6.80;99.90
9385;DHT22;4732;49.340;10.886;2024-02-04T04:30:57;6.80;99.90
9385;DHT22;4732;49.340;10.886;2024-02-04T04:33:23;6.70;99.90
9385;DHT22;4732;49.340;10.886;2024-02-04T04:35:48;6.70;99.90
9385;DHT22;4732;49.340;10.886;2024-02-04T04:38:14;6.70;99.90
9385;DHT22;4732;49.340;10.886;2024-02-04T04:40:39;6.70;99.90
9385;DHT22;4732;49.340;10.886;2024-02-04T04:43:08;6.70;99.90
9385;DHT22;4732;49.340;10.886;2024-02-04T04:45:33;6.70;99.90
9385;DHT22;4732;49.340;10.886;2024-02-04T04:47:59;6.50;99.90
9385;DHT22;4732;49.340;10.886;2024-02-04T04:50:24;6.70;99.90
9385;DHT22;4732;49.340;10.886;2024-02-04T04:52:50;6.60;99.90
9385;DHT22;4732;49.340;10.886;2024-02-04T04:55:16;6.60;99.90
9385;DHT22;4732;49.340;10.886;2024-02-04T04:57:41;6.70;99.90
9385;DHT22;4732;49.340;10.886;2024-02-04T05:00:07;6.70;99.90
9385;DHT22;4732;49.340;10.886;2024-02-04T05:02:35;6.70;99.90
9385;DHT22;4732;49.340;10.886;2024-02-04T05:05:01;6.70;99.90
9385;DHT22;4732;49.340;10.886;2024-02-04T05:07:27;6.60;99.90
9385;DHT22;4732;49.340;10.886;2024-02-04T05:09:52;6.70;99.90
9385;DHT22;4732;49.340;10.886;2024-02-04T05:12:18;6.70;99.90
9385;DHT22;4732;49.340;10.886;2024-02-04T05:14:44;6.70;99.90
9385;DHT22;4732;49.340;10.886;2024-02-04T05:17:09;6.70;99.90
9385;DHT22;4732;49.340;10.886;2024-02-04T05:19:35;6.70;99.90
9385;DHT22;4732;49.340;10.886;2024-02-04T05:22:01;6.60;99.90
9385;DHT22;4732;49.340;10.886;2024-02-04T05:24:26;6.60;99.90
9385;DHT22;4732;49.340;10.886;2024-02-04T05:26:52;6.60;99.90
9385;DHT22;4732;49.340;10.886;2024-02-04T05:29:17;6.60;99.90
9385;DHT22;4732;49.340;10.886;2024-02-04T05:31:43;6.60;99.90
9385;DHT22;4732;49.340;10.886;2024-02-04T05:34:09;6.60;99.90
9385;DHT22;4732;49.340;10.886;2024-02-04T05:36:35;6.60;99.90
9385;DHT22;4732;49.340;10.886;2024-02-04T05:39:14;6.60;99.90
9385;DHT22;4732;49.340;10.886;2024-02-04T05:41:40;6.60;99.90
9385;DHT22;4732;49.340;10.886;2024-02-04T05:44:06;6.60;99.90
9385;DHT22;4732;49.340;10.886;2024-02-04T05:46:37;6.60;99.90
9385;DHT22;4732;49.340;10.886;2024-02-04T05:49:04;6.60;99.90
9385;DHT22;4732;49.340;10.886;2024-02-04T05:51:31;6.60;99.90
9385;DHT22;4732;49.340;10.886;2024-02-04T05:53:57;6.60;99.90
9385;DHT22;4732;49.340;10.886;2024-02-04T05:56:23;6.60;99.90
9385;DHT22;4732;49.340;10.886;2024-02-04T05:58:48;6.60;99.90
9385;DHT22;4732;49.340;10.886;2024-02-04T06:01:15;6.60;99.90
9385;DHT22;4732;49.340;10.886;2024-02-04T06:03:42;6.60;99.90
9385;DHT22;4732;49.340;10.886;2024-02-04T06:06:09;6.60;99.90
9385;DHT22;4732;49.340;10.886;2024-02-04T06:08:34;6.50;99.90
9385;DHT22;4732;49.340;10.886;2024-02-04T06:11:00;6.60;99.90
9385;DHT22;4732;49.340;10.886;2024-02-04T06:13:25;6.60;99.90
9385;DHT22;4732;49.340;10.886;2024-02-04T06:15:51;6.50;99.90
9385;DHT22;4732;49.340;10.886;2024-02-04T06:18:16;6.60;99.90
9385;DHT22;4732;49.340;10.886;2024-02-04T06:20:42;6.60;99.90
9385;DHT22;4732;49.340;10.886;2024-02-04T06:23:08;6.60;99.90
9385;DHT22;4732;49.340;10.886;2024-02-04T06:25:34;6.50;99.90
9385;DHT22;4732;49.340;10.886;2024-02-04T06:27:59;6.50;99.90
9385;DHT22;4732;49.340;10.886;2024-02-04T06:30:24;6.60;99.90
9385;DHT22;4732;49.340;10.886;2024-02-04T06:32:50;6.50;99.90
9385;DHT22;4732;49.340;10.886;2024-02-04T06:35:16;6.50;99.90
9385;DHT22;4732;49.340;10.886;2024-02-04T06:37:41;6.50;99.90
9385;DHT22;4732;49.340;10.886;2024-02-04T06:40:09;6.50;99.90
9385;DHT22;4732;49.340;10.886;2024-02-04T06:42:35;6.50;99.90
9385;DHT22;4732;49.340;10.886;2024-02-04T06:45:01;6.60;99.90
9385;DHT22;4732;49.340;10.886;2024-02-04T06:47:26;6.60;99.90
9385;DHT22;4732;49.340;10.886;2024-02-04T06:49:51;6.60;99.90
9385;DHT22;4732;49.340;10.886;2024-02-04T06:52:17;6.60;99.90
9385;DHT22;4732;49.340;10.886;2024-02-04T06:54:44;6.60;99.90
9385;DHT22;4732;49.340;10.886;2024-02-04T06:57:09;6.60;99.90
9385;DHT22;4732;49.340;10.886;2024-02-04T06:59:35;6.60;99.90
9385;DHT22;4732;49.340;10.886;2024-02-04T07:02:00;6.70;99.90
9385;DHT22;4732;49.340;10.886;2024-02-04T07:04:26;6.70;99.90
9385;DHT22;4732;49.340;10.886;2024-02-04T07:06:51;6.70;99.90
9385;DHT22;4732;49.340;10.886;2024-02-04T07:09:17;6.70;99.90
9385;DHT22;4732;49.340;10.886;2024-02-04T07:11:43;6.70;99.90
9385;DHT22;4732;49.340;10.886;2024-02-04T07:14:08;6.70;99.90
9385;DHT22;4732;49.340;10.886;2024-02-04T07:16:34;6.80;99.90
9385;DHT22;4732;49.340;10.886;2024-02-04T07:19:00;6.70;99.90
9385;DHT22;4732;49.340;10.886;2024-02-04T07:21:25;6.70;99.90
9385;DHT22;4732;49.340;10.886;2024-02-04T07:23:51;6.80;99.90
9385;DHT22;4732;49.340;10.886;2024-02-04T07:26:16;6.80;99.90
9385;DHT22;4732;49.340;10.886;2024-02-04T07:28:42;6.80;99.90
9385;DHT22;4732;49.340;10.886;2024-02-04T07:31:07;6.80;99.90
9385;DHT22;4732;49.340;10.886;2024-02-04T07:33:33;6.80;99.90
9385;DHT22;4732;49.340;10.886;2024-02-04T07:35:58;6.80;99.90
9385;DHT22;4732;49.340;10.886;2024-02-04T07:38:24;6.90;99.90
9385;DHT22;4732;49.340;10.886;2024-02-04T07:40:49;6.80;99.90
9385;DHT22;4732;49.340;10.886;2024-02-04T07:43:15;6.90;99.90
9385;DHT22;4732;49.340;10.886;2024-02-04T07:45:40;6.90;99.90
9385;DHT22;4732;49.340;10.886;2024-02-04T07:48:07;7.00;99.90
9385;DHT22;4732;49.340;10.886;2024-02-04T07:50:34;7.00;99.90
9385;DHT22;4732;49.340;10.886;2024-02-04T07:53:00;7.00;99.90
9385;DHT22;4732;49.340;10.886;2024-02-04T07:55:28;7.00;99.90
9385;DHT22;4732;49.340;10.886;2024-02-04T07:57:54;7.10;99.90
9385;DHT22;4732;49.340;10.886;2024-02-04T08:00:19;7.10;99.90
9385;DHT22;4732;49.340;10.886;2024-02-04T08:02:45;7.10;99.90
9385;DHT22;4732;49.340;10.886;2024-02-04T08:05:10;7.10;99.90
9385;DHT22;4732;49.340;10.886;2024-02-04T08:07:36;7.10;99.90
9385;DHT22;4732;49.340;10.886;2024-02-04T08:10:02;7.10;99.90
9385;DHT22;4732;49.340;10.886;2024-02-04T08:12:27;7.20;99.90
9385;DHT22;4732;49.340;10.886;2024-02-04T08:14:53;7.10;99.90
9385;DHT22;4732;49.340;10.886;2024-02-04T08:17:19;7.20;99.90
9385;DHT22;4732;49.340;10.886;2024-02-04T08:19:44;7.00;99.90
9385;DHT22;4732;49.340;10.886;2024-02-04T08:22:10;7.20;99.90
9385;DHT22;4732;49.340;10.886;2024-02-04T08:24:35;7.20;99.90
9385;DHT22;4732;49.340;10.886;2024-02-04T08:27:01;7.20;99.90
9385;DHT22;4732;49.340;10.886;2024-02-04T08:29:27;7.20;99.90
9385;DHT22;4732;49.340;10.886;2024-02-04T08:31:53;9.20;99.90
9385;DHT22;4732;49.340;10.886;2024-02-04T08:34:18;7.10;99.90
9385;DHT22;4732;49.340;10.886;2024-02-04T08:36:46;7.30;99.90
9385;DHT22;4732;49.340;10.886;2024-02-04T08:39:12;7.20;99.90
9385;DHT22;4732;49.340;10.886;2024-02-04T08:41:38;7.40;99.90
9385;DHT22;4732;49.340;10.886;2024-02-04T08:44:03;7.30;99.90
9385;DHT22;4732;49.340;10.886;2024-02-04T08:46:29;7.30;99.90
9385;DHT22;4732;49.340;10.886;2024-02-04T08:48:54;7.30;99.90
9385;DHT22;4732;49.340;10.886;2024-02-04T08:51:20;7.10;99.90
9385;DHT22;4732;49.340;10.886;2024-02-04T08:53:45;7.30;99.90
9385;DHT22;4732;49.340;10.886;2024-02-04T08:56:11;7.30;99.90
9385;DHT22;4732;49.340;10.886;2024-02-04T08:58:36;7.30;99.90
9385;DHT22;4732;49.340;10.886;2024-02-04T09:01:03;7.40;99.90
9385;DHT22;4732;49.340;10.886;2024-02-04T09:03:29;7.40;99.90
9385;DHT22;4732;49.340;10.886;2024-02-04T09:05:55;7.40;99.90
9385;DHT22;4732;49.340;10.886;2024-02-04T09:08:20;7.50;99.90
9385;DHT22;4732;49.340;10.886;2024-02-04T09:10:46;7.40;99.90
9385;DHT22;4732;49.340;10.886;2024-02-04T09:13:12;7.50;99.90
9385;DHT22;4732;49.340;10.886;2024-02-04T09:15:38;7.50;99.90
9385;DHT22;4732;49.340;10.886;2024-02-04T09:18:03;7.80;99.90
9385;DHT22;4732;49.340;10.886;2024-02-04T09:20:29;7.60;99.90
9385;DHT22;4732;49.340;10.886;2024-02-04T09:22:55;7.60;99.90
9385;DHT22;4732;49.340;10.886;2024-02-04T09:25:20;7.60;99.90
9385;DHT22;4732;49.340;10.886;2024-02-04T09:27:46;7.60;99.90
9385;DHT22;4732;49.340;10.886;2024-02-04T09:30:11;7.60;99.90
9385;DHT22;4732;49.340;10.886;2024-02-04T09:32:37;7.70;99.90
9385;DHT22;4732;49.340;10.886;2024-02-04T09:35:03;7.70;99.90
9385;DHT22;4732;49.340;10.886;2024-02-04T09:37:29;7.70;99.90
9385;DHT22;4732;49.340;10.886;2024-02-04T09:39:55;7.70;99.90
9385;DHT22;4732;49.340;10.886;2024-02-04T09:42:21;7.70;99.90
9385;DHT22;4732;49.340;10.886;2024-02-04T09:44:50;7.80;99.90
9385;DHT22;4732;49.340;10.886;2024-02-04T09:47:16;7.80;99.90
9385;DHT22;4732;49.340;10.886;2024-02-04T09:49:43;7.90;99.90
9385;DHT22;4732;49.340;10.886;2024-02-04T09:52:09;7.90;99.90
9385;DHT22;4732;49.340;10.886;2024-02-04T09:54:51;7.50;99.90
9385;DHT22;4732;49.340;10.886;2024-02-04T09:57:19;8.00;99.90
9385;DHT22;4732;49.340;10.886;2024-02-04T09:59:44;8.00;99.90
9385;DHT22;4732;49.340;10.886;2024-02-04T10:02:10;8.00;99.90
9385;DHT22;4732;49.340;10.886;2024-02-04T10:04:36;8.00;99.90
9385;DHT22;4732;49.340;10.886;2024-02-04T10:07:02;8.00;99.90
9385;DHT22;4732;49.340;10.886;2024-02-04T10:09:27;8.00;99.90
9385;DHT22;4732;49.340;10.886;2024-02-04T10:11:53;8.00;99.90
9385;DHT22;4732;49.340;10.886;2024-02-04T10:14:19;7.90;99.90
9385;DHT22;4732;49.340;10.886;2024-02-04T10:16:45;8.00;99.90
9385;DHT22;4732;49.340;10.886;2024-02-04T10:19:12;8.10;99.90
9385;DHT22;4732;49.340;10.886;2024-02-04T10:21:37;8.10;99.90
9385;DHT22;4732;49.340;10.886;2024-02-04T10:24:03;8.10;99.90
9385;DHT22;4732;49.340;10.886;2024-02-04T10:26:29;8.10;99.90
9385;DHT22;4732;49.340;10.886;2024-02-04T10:29:00;8.10;99.90
9385;DHT22;4732;49.340;10.886;2024-02-04T10:31:26;8.00;99.90
9385;DHT22;4732;49.340;10.886;2024-02-04T10:33:52;8.20;99.90
9385;DHT22;4732;49.340;10.886;2024-02-04T10:36:18;8.10;99.90
9385;DHT22;4732;49.340;10.886;2024-02-04T10:38:43;8.20;99.90
9385;DHT22;4732;49.340;10.886;2024-02-04T10:41:15;8.20;99.90
9385;DHT22;4732;49.340;10.886;2024-02-04T10:43:43;8.20;99.90
9385;DHT22;4732;49.340;10.886;2024-02-04T10:46:13;8.20;99.90
9385;DHT22;4732;49.340;10.886;2024-02-04T10:48:43;8.20;99.90
9385;DHT22;4732;49.340;10.886;2024-02-04T10:51:15;8.30;99.90
9385;DHT22;4732;49.340;10.886;2024-02-04T10:53:45;8.30;99.90
9385;DHT22;4732;49.340;10.886;2024-02-04T10:56:22;8.40;99.90
9385;DHT22;4732;49.340;10.886;2024-02-04T10:58:52;8.50;99.90
9385;DHT22;4732;49.340;10.886;2024-02-04T11:01:18;8.50;99.90
9385;DHT22;4732;49.340;10.886;2024-02-04T11:03:45;8.50;99.90
9385;DHT22;4732;49.340;10.886;2024-02-04T11:06:11;8.50;99.90
9385;DHT22;4732;49.340;10.886;2024-02-04T11:08:41;8.50;99.90
9385;DHT22;4732;49.340;10.886;2024-02-04T11:11:07;8.60;99.90
9385;DHT22;4732;49.340;10.886;2024-02-04T11:13:34;8.60;99.90
9385;DHT22;4732;49.340;10.886;2024-02-04T11:16:06;8.60;99.90
9385;DHT22;4732;49.340;10.886;2024-02-04T11:24:25;8.60;99.90
9385;DHT22;4732;49.340;10.886;2024-02-04T11:26:55;8.60;99.90
9385;DHT22;4732;49.340;10.886;2024-02-04T11:29:22;8.60;99.90
9385;DHT22;4732;49.340;10.886;2024-02-04T11:31:47;8.60;99.90
9385;DHT22;4732;49.340;10.886;2024-02-04T11:34:13;8.60;99.90
9385;DHT22;4732;49.340;10.886;2024-02-04T11:36:39;8.60;99.90
9385;DHT22;4732;49.340;10.886;2024-02-04T11:39:34;8.60;99.90
9385;DHT22;4732;49.340;10.886;2024-02-04T11:42:00;8.70;99.90
9385;DHT22;4732;49.340;10.886;2024-02-04T11:44:26;8.70;99.90
9385;DHT22;4732;49.340;10.886;2024-02-04T11:46:54;8.60;99.90
9385;DHT22;4732;49.340;10.886;2024-02-04T11:49:24;8.70;99.90
9385;DHT22;4732;49.340;10.886;2024-02-04T11:51:51;8.70;99.90
9385;DHT22;4732;49.340;10.886;2024-02-04T11:54:17;8.70;99.90
9385;DHT22;4732;49.340;10.886;2024-02-04T11:56:49;8.80;99.90
9385;DHT22;4732;49.340;10.886;2024-02-04T11:59:19;8.90;99.90
9385;DHT22;4732;49.340;10.886;2024-02-04T12:01:47;8.80;99.90
9385;DHT22;4732;49.340;10.886;2024-02-04T12:04:15;8.90;99.90
9385;DHT22;4732;49.340;10.886;2024-02-04T12:06:41;8.90;99.90
9385;DHT22;4732;49.340;10.886;2024-02-04T12:09:08;8.90;99.90
9385;DHT22;4732;49.340;10.886;2024-02-04T12:11:37;8.80;99.90
9385;DHT22;4732;49.340;10.886;2024-02-04T12:14:07;8.80;99.90
9385;DHT22;4732;49.340;10.886;2024-02-04T12:16:33;8.80;99.90
9385;DHT22;4732;49.340;10.886;2024-02-04T12:19:04;8.80;99.90
9385;DHT22;4732;49.340;10.886;2024-02-04T12:21:31;8.70;99.90
9385;DHT22;4732;49.340;10.886;2024-02-04T12:23:58;8.70;99.90
9385;DHT22;4732;49.340;10.886;2024-02-04T12:26:23;8.70;99.90
9385;DHT22;4732;49.340;10.886;2024-02-04T12:28:50;8.70;99.90
9385;DHT22;4732;49.340;10.886;2024-02-04T12:31:25;8.70;99.90
9385;DHT22;4732;49.340;10.886;2024-02-04T12:34:00;8.70;99.90
9385;DHT22;4732;49.340;10.886;2024-02-04T12:36:32;8.70;99.90
9385;DHT22;4732;49.340;10.886;2024-02-04T12:39:00;8.70;99.90
9385;DHT22;4732;49.340;10.886;2024-02-04T12:41:27;8.70;99.90
9385;DHT22;4732;49.340;10.886;2024-02-04T12:43:58;8.70;99.90
9385;DHT22;4732;49.340;10.886;2024-02-04T12:46:26;8.70;99.90
9385;DHT22;4732;49.340;10.886;2024-02-04T12:48:52;8.60;99.90
9385;DHT22;4732;49.340;10.886;2024-02-04T12:51:29;8.60;99.90
9385;DHT22;4732;49.340;10.886;2024-02-04T12:54:08;8.70;99.90
9385;DHT22;4732;49.340;10.886;2024-02-04T12:59:28;8.70;99.90
9385;DHT22;4732;49.340;10.886;2024-02-04T13:01:56;8.70;99.90
9385;DHT22;4732;49.340;10.886;2024-02-04T13:04:21;8.70;99.90
9385;DHT22;4732;49.340;10.886;2024-02-04T13:06:47;8.70;99.90
9385;DHT22;4732;49.340;10.886;2024-02-04T13:09:15;8.70;99.90
9385;DHT22;4732;49.340;10.886;2024-02-04T13:11:41;8.80;99.90
9385;DHT22;4732;49.340;10.886;2024-02-04T13:14:07;8.80;99.90
9385;DHT22;4732;49.340;10.886;2024-02-04T13:16:33;8.80;99.90
9385;DHT22;4732;49.340;10.886;2024-02-04T13:19:01;8.80;99.90
9385;DHT22;4732;49.340;10.886;2024-02-04T13:21:27;8.80;99.90
9385;DHT22;4732;49.340;10.886;2024-02-04T13:23:53;8.70;99.90
9385;DHT22;4732;49.340;10.886;2024-02-04T13:26:18;8.90;99.90
9385;DHT22;4732;49.340;10.886;2024-02-04T13:28:44;8.90;99.90
9385;DHT22;4732;49.340;10.886;2024-02-04T13:31:09;8.90;99.90
9385;DHT22;4732;49.340;10.886;2024-02-04T13:33:37;9.00;99.90
9385;DHT22;4732;49.340;10.886;2024-02-04T13:36:03;9.10;99.90
9385;DHT22;4732;49.340;10.886;2024-02-04T13:38:29;9.10;99.90
9385;DHT22;4732;49.340;10.886;2024-02-04T13:40:55;9.10;99.90
9385;DHT22;4732;49.340;10.886;2024-02-04T13:43:20;9.10;99.90
9385;DHT22;4732;49.340;10.886;2024-02-04T13:45:46;9.10;99.90
9385;DHT22;4732;49.340;10.886;2024-02-04T13:48:12;9.00;99.90
9385;DHT22;4732;49.340;10.886;2024-02-04T13:50:37;9.10;99.90
9385;DHT22;4732;49.340;10.886;2024-02-04T13:53:03;9.00;99.90
9385;DHT22;4732;49.340;10.886;2024-02-04T13:55:29;8.90;99.90
9385;DHT22;4732;49.340;10.886;2024-02-04T13:57:55;8.90;99.90
9385;DHT22;4732;49.340;10.886;2024-02-04T14:00:21;8.90;99.90
9385;DHT22;4732;49.340;10.886;2024-02-04T14:02:46;9.00;99.90
9385;DHT22;4732;49.340;10.886;2024-02-04T14:05:12;9.00;99.90
9385;DHT22;4732;49.340;10.886;2024-02-04T14:07:38;9.10;99.90
9385;DHT22;4732;49.340;10.886;2024-02-04T14:10:04;9.00;99.90
9385;DHT22;4732;49.340;10.886;2024-02-04T14:12:30;9.00;99.90
9385;DHT22;4732;49.340;10.886;2024-02-04T14:14:56;9.20;99.90
9385;DHT22;4732;49.340;10.886;2024-02-04T14:17:22;9.00;99.90
9385;DHT22;4732;49.340;10.886;2024-02-04T14:19:48;8.90;99.90
9385;DHT22;4732;49.340;10.886;2024-02-04T14:22:16;8.90;99.90
9385;DHT22;4732;49.340;10.886;2024-02-04T14:24:43;8.80;99.90
9385;DHT22;4732;49.340;10.886;2024-02-04T14:27:10;8.80;99.90
9385;DHT22;4732;49.340;10.886;2024-02-04T14:29:36;8.70;99.90
9385;DHT22;4732;49.340;10.886;2024-02-04T14:32:02;8.70;99.90
9385;DHT22;4732;49.340;10.886;2024-02-04T14:34:28;8.70;99.90
9385;DHT22;4732;49.340;10.886;2024-02-04T14:36:53;8.60;99.90
9385;DHT22;4732;49.340;10.886;2024-02-04T14:39:19;8.70;99.90
9385;DHT22;4732;49.340;10.886;2024-02-04T14:41:45;8.60;99.90
9385;DHT22;4732;49.340;10.886;2024-02-04T14:44:10;8.70;99.90
9385;DHT22;4732;49.340;10.886;2024-02-04T14:46:36;8.70;99.90
9385;DHT22;4732;49.340;10.886;2024-02-04T14:49:03;8.60;99.90
9385;DHT22;4732;49.340;10.886;2024-02-04T14:51:29;8.70;99.90
9385;DHT22;4732;49.340;10.886;2024-02-04T14:53:56;8.60;99.90
9385;DHT22;4732;49.340;10.886;2024-02-04T14:56:23;8.70;99.90
9385;DHT22;4732;49.340;10.886;2024-02-04T14:58:49;8.60;99.90
9385;DHT22;4732;49.340;10.886;2024-02-04T15:01:14;8.80;99.90
9385;DHT22;4732;49.340;10.886;2024-02-04T15:03:41;8.50;99.90
9385;DHT22;4732;49.340;10.886;2024-02-04T15:06:06;8.60;99.90
9385;DHT22;4732;49.340;10.886;2024-02-04T15:08:32;8.50;99.90
9385;DHT22;4732;49.340;10.886;2024-02-04T15:10:57;8.40;99.90
9385;DHT22;4732;49.340;10.886;2024-02-04T15:13:23;8.40;99.90
9385;DHT22;4732;49.340;10.886;2024-02-04T15:15:49;8.40;99.90
9385;DHT22;4732;49.340;10.886;2024-02-04T15:18:15;8.50;99.90
9385;DHT22;4732;49.340;10.886;2024-02-04T15:20:40;8.40;99.90
9385;DHT22;4732;49.340;10.886;2024-02-04T15:23:06;8.40;99.90
9385;DHT22;4732;49.340;10.886;2024-02-04T15:25:33;8.40;99.90
9385;DHT22;4732;49.340;10.886;2024-02-04T15:27:59;8.40;99.90
9385;DHT22;4732;49.340;10.886;2024-02-04T15:30:24;8.40;99.90
9385;DHT22;4732;49.340;10.886;2024-02-04T15:32:50;8.40;99.90
9385;DHT22;4732;49.340;10.886;2024-02-04T15:35:17;8.40;99.90
9385;DHT22;4732;49.340;10.886;2024-02-04T15:37:43;8.40;99.90
9385;DHT22;4732;49.340;10.886;2024-02-04T15:40:11;8.40;99.90
9385;DHT22;4732;49.340;10.886;2024-02-04T15:42:37;8.40;99.90
9385;DHT22;4732;49.340;10.886;2024-02-04T15:45:02;8.30;99.90
9385;DHT22;4732;49.340;10.886;2024-02-04T15:47:30;8.30;99.90
9385;DHT22;4732;49.340;10.886;2024-02-04T15:49:55;8.30;99.90
9385;DHT22;4732;49.340;10.886;2024-02-04T15:52:21;8.30;99.90
9385;DHT22;4732;49.340;10.886;2024-02-04T15:54:47;8.30;99.90
9385;DHT22;4732;49.340;10.886;2024-02-04T15:57:13;8.30;99.90
9385;DHT22;4732;49.340;10.886;2024-02-04T16:02:06;8.20;99.90
9385;DHT22;4732;49.340;10.886;2024-02-04T16:04:33;8.20;99.90
9385;DHT22;4732;49.340;10.886;2024-02-04T16:06:59;8.20;99.90
9385;DHT22;4732;49.340;10.886;2024-02-04T16:09:27;8.20;99.90
9385;DHT22;4732;49.340;10.886;2024-02-04T16:12:05;8.10;99.90
9385;DHT22;4732;49.340;10.886;2024-02-04T16:14:38;8.20;99.90
9385;DHT22;4732;49.340;10.886;2024-02-04T16:17:12;8.20;99.90
9385;DHT22;4732;49.340;10.886;2024-02-04T16:19:38;8.10;99.90
9385;DHT22;4732;49.340;10.886;2024-02-04T16:22:04;8.10;99.90
9385;DHT22;4732;49.340;10.886;2024-02-04T16:24:30;8.00;99.90
9385;DHT22;4732;49.340;10.886;2024-02-04T16:26:55;8.10;99.90
9385;DHT22;4732;49.340;10.886;2024-02-04T16:29:21;8.00;99.90
9385;DHT22;4732;49.340;10.886;2024-02-04T16:31:53;8.10;99.90
9385;DHT22;4732;49.340;10.886;2024-02-04T16:34:19;8.10;99.90
9385;DHT22;4732;49.340;10.886;2024-02-04T16:36:46;8.00;99.90
9385;DHT22;4732;49.340;10.886;2024-02-04T16:39:12;8.10;99.90
9385;DHT22;4732;49.340;10.886;2024-02-04T16:41:37;8.10;99.90
9385;DHT22;4732;49.340;10.886;2024-02-04T16:44:03;8.10;99.90
9385;DHT22;4732;49.340;10.886;2024-02-04T16:46:29;8.10;99.90
9385;DHT22;4732;49.340;10.886;2024-02-04T16:48:54;8.00;99.90
9385;DHT22;4732;49.340;10.886;2024-02-04T16:51:20;8.10;99.90
9385;DHT22;4732;49.340;10.886;2024-02-04T16:53:46;8.00;99.90
9385;DHT22;4732;49.340;10.886;2024-02-04T16:56:12;8.00;99.90
9385;DHT22;4732;49.340;10.886;2024-02-04T16:58:42;8.00;99.90
9385;DHT22;4732;49.340;10.886;2024-02-04T17:01:08;8.00;99.90
9385;DHT22;4732;49.340;10.886;2024-02-04T17:03:33;8.00;99.90
9385;DHT22;4732;49.340;10.886;2024-02-04T17:06:00;8.00;99.90
9385;DHT22;4732;49.340;10.886;2024-02-04T17:08:26;8.00;99.90
9385;DHT22;4732;49.340;10.886;2024-02-04T17:10:52;8.10;99.90
9385;DHT22;4732;49.340;10.886;2024-02-04T17:13:18;8.00;99.90
9385;DHT22;4732;49.340;10.886;2024-02-04T17:15:44;8.10;99.90
9385;DHT22;4732;49.340;10.886;2024-02-04T17:18:12;8.10;99.90
9385;DHT22;4732;49.340;10.886;2024-02-04T17:20:51;8.00;99.90
9385;DHT22;4732;49.340;10.886;2024-02-04T17:23:20;8.00;99.90
9385;DHT22;4732;49.340;10.886;2024-02-04T17:25:46;8.00;99.90
9385;DHT22;4732;49.340;10.886;2024-02-04T17:28:14;7.90;99.90
9385;DHT22;4732;49.340;10.886;2024-02-04T17:30:40;7.90;99.90
9385;DHT22;4732;49.340;10.886;2024-02-04T17:33:06;8.00;99.90
9385;DHT22;4732;49.340;10.886;2024-02-04T17:35:32;8.00;99.90
9385;DHT22;4732;49.340;10.886;2024-02-04T17:37:58;7.90;99.90
9385;DHT22;4732;49.340;10.886;2024-02-04T17:40:24;7.90;99.90
9385;DHT22;4732;49.340;10.886;2024-02-04T17:42:51;8.00;99.90
9385;DHT22;4732;49.340;10.886;2024-02-04T17:45:17;8.00;99.90
9385;DHT22;4732;49.340;10.886;2024-02-04T17:47:42;7.90;99.90
9385;DHT22;4732;49.340;10.886;2024-02-04T17:50:08;7.90;99.90
9385;DHT22;4732;49.340;10.886;2024-02-04T17:52:35;7.90;99.90
9385;DHT22;4732;49.340;10.886;2024-02-04T17:55:01;7.90;99.90
9385;DHT22;4732;49.340;10.886;2024-02-04T17:57:26;8.00;99.90
9385;DHT22;4732;49.340;10.886;2024-02-04T17:59:52;7.90;99.90
9385;DHT22;4732;49.340;10.886;2024-02-04T18:02:18;8.00;99.90
9385;DHT22;4732;49.340;10.886;2024-02-04T18:04:44;7.90;99.90
9385;DHT22;4732;49.340;10.886;2024-02-04T18:07:11;7.90;99.90
9385;DHT22;4732;49.340;10.886;2024-02-04T18:09:36;7.80;99.90
9385;DHT22;4732;49.340;10.886;2024-02-04T18:12:08;7.90;99.90
9385;DHT22;4732;49.340;10.886;2024-02-04T18:14:34;7.90;99.90
9385;DHT22;4732;49.340;10.886;2024-02-04T18:16:59;7.80;99.90
9385;DHT22;4732;49.340;10.886;2024-02-04T18:19:31;7.80;99.90
9385;DHT22;4732;49.340;10.886;2024-02-04T18:21:57;7.80;99.90
9385;DHT22;4732;49.340;10.886;2024-02-04T18:24:22;7.80;99.90
9385;DHT22;4732;49.340;10.886;2024-02-04T18:26:49;7.80;99.90
9385;DHT22;4732;49.340;10.886;2024-02-04T18:29:15;7.80;99.90
9385;DHT22;4732;49.340;10.886;2024-02-04T18:31:41;7.80;99.90
9385;DHT22;4732;49.340;10.886;2024-02-04T18:34:11;7.80;99.90
9385;DHT22;4732;49.340;10.886;2024-02-04T18:36:37;7.80;99.90
9385;DHT22;4732;49.340;10.886;2024-02-04T18:39:03;7.70;99.90
9385;DHT22;4732;49.340;10.886;2024-02-04T18:41:29;7.80;99.90
9385;DHT22;4732;49.340;10.886;2024-02-04T18:43:55;7.80;99.90
9385;DHT22;4732;49.340;10.886;2024-02-04T18:46:20;7.80;99.90
9385;DHT22;4732;49.340;10.886;2024-02-04T18:48:46;7.80;99.90
9385;DHT22;4732;49.340;10.886;2024-02-04T18:51:12;7.70;99.90
9385;DHT22;4732;49.340;10.886;2024-02-04T18:53:37;7.80;99.90
9385;DHT22;4732;49.340;10.886;2024-02-04T18:56:04;7.80;99.90
9385;DHT22;4732;49.340;10.886;2024-02-04T18:58:30;7.90;99.90
9385;DHT22;4732;49.340;10.886;2024-02-04T19:00:56;7.80;99.90
9385;DHT22;4732;49.340;10.886;2024-02-04T19:03:22;7.80;99.90
9385;DHT22;4732;49.340;10.886;2024-02-04T19:05:48;7.80;99.90
9385;DHT22;4732;49.340;10.886;2024-02-04T19:08:15;7.90;99.90
9385;DHT22;4732;49.340;10.886;2024-02-04T19:10:40;7.90;99.90
9385;DHT22;4732;49.340;10.886;2024-02-04T19:13:06;7.90;99.90
9385;DHT22;4732;49.340;10.886;2024-02-04T19:15:32;7.80;99.90
9385;DHT22;4732;49.340;10.886;2024-02-04T19:17:57;7.90;99.90
9385;DHT22;4732;49.340;10.886;2024-02-04T19:20:23;7.90;99.90
9385;DHT22;4732;49.340;10.886;2024-02-04T19:22:49;7.90;99.90
9385;DHT22;4732;49.340;10.886;2024-02-04T19:25:19;7.90;99.90
9385;DHT22;4732;49.340;10.886;2024-02-04T19:28:05;8.00;99.90
9385;DHT22;4732;49.340;10.886;2024-02-04T19:30:30;8.00;99.90
9385;DHT22;4732;49.340;10.886;2024-02-04T19:32:56;7.90;99.90
9385;DHT22;4732;49.340;10.886;2024-02-04T19:35:27;8.00;99.90
9385;DHT22;4732;49.340;10.886;2024-02-04T19:37:53;8.00;99.90
9385;DHT22;4732;49.340;10.886;2024-02-04T19:40:19;8.00;99.90
9385;DHT22;4732;49.340;10.886;2024-02-04T19:42:46;7.90;99.90
9385;DHT22;4732;49.340;10.886;2024-02-04T19:45:12;8.00;99.90
9385;DHT22;4732;49.340;10.886;2024-02-04T19:47:38;8.00;99.90
9385;DHT22;4732;49.340;10.886;2024-02-04T19:50:05;8.10;99.90
9385;DHT22;4732;49.340;10.886;2024-02-04T19:52:36;8.10;99.90
9385;DHT22;4732;49.340;10.886;2024-02-04T19:55:03;8.10;99.90
9385;DHT22;4732;49.340;10.886;2024-02-04T19:57:29;8.10;99.90
9385;DHT22;4732;49.340;10.886;2024-02-04T19:59:54;8.00;99.90
9385;DHT22;4732;49.340;10.886;2024-02-04T20:02:23;8.00;99.90
9385;DHT22;4732;49.340;10.886;2024-02-04T20:04:49;8.10;99.90
9385;DHT22;4732;49.340;10.886;2024-02-04T20:07:15;8.10;99.90
9385;DHT22;4732;49.340;10.886;2024-02-04T20:09:40;8.10;99.90